sensor_id;sensor_type;location;lat;lon;timestamp;P1;durP1;ratioP1;P2;durP2;ratioP2
16854;SDS011;8543;54.522;18.550;2024-03-25T00:01:05;10.10;;;7.10;;
16854;SDS011;8543;54.522;18.550;2024-03-25T00:03:31;12.50;;;7.30;;
16854;SDS011;8543;54.522;18.550;2024-03-25T00:05:56;11.30;;;6.90;;
16854;SDS011;8543;54.522;18.550;2024-03-25T00:08:22;10.00;;;7.10;;
16854;SDS011;8543;54.522;18.550;2024-03-25T00:10:47;10.90;;;6.90;;
16854;SDS011;8543;54.522;18.550;2024-03-25T00:13:13;10.70;;;6.40;;
16854;SDS011;8543;54.522;18.550;2024-03-25T00:15:38;10.90;;;6.20;;
16854;SDS011;8543;54.522;18.550;2024-03-25T00:18:04;11.60;;;6.70;;
16854;SDS011;8543;54.522;18.550;2024-03-25T00:20:30;10.20;;;6.50;;
16854;SDS011;8543;54.522;18.550;2024-03-25T00:22:55;10.90;;;6.40;;
16854;SDS011;8543;54.522;18.550;2024-03-25T00:25:21;12.80;;;6.90;;
16854;SDS011;8543;54.522;18.550;2024-03-25T00:27:46;9.90;;;7.20;;
16854;SDS011;8543;54.522;18.550;2024-03-25T00:30:12;10.90;;;6.90;;
16854;SDS011;8543;54.522;18.550;2024-03-25T00:32:37;10.80;;;6.70;;
16854;SDS011;8543;54.522;18.550;2024-03-25T00:35:03;9.60;;;6.40;;
16854;SDS011;8543;54.522;18.550;2024-03-25T00:37:29;11.90;;;7.20;;
16854;SDS011;8543;54.522;18.550;2024-03-25T00:39:54;9.80;;;6.60;;
16854;SDS011;8543;54.522;18.550;2024-03-25T00:42:19;12.40;;;6.90;;
16854;SDS011;8543;54.522;18.550;2024-03-25T00:44:45;10.90;;;7.10;;
16854;SDS011;8543;54.522;18.550;2024-03-25T00:47:10;7.80;;;5.80;;
16854;SDS011;8543;54.522;18.550;2024-03-25T00:49:35;7.80;;;5.70;;
16854;SDS011;8543;54.522;18.550;2024-03-25T00:52:01;10.80;;;5.90;;
16854;SDS011;8543;54.522;18.550;2024-03-25T00:54:27;9.00;;;5.90;;
16854;SDS011;8543;54.522;18.550;2024-03-25T00:56:52;8.60;;;5.30;;
16854;SDS011;8543;54.522;18.550;2024-03-25T00:59:18;10.00;;;6.00;;
16854;SDS011;8543;54.522;18.550;2024-03-25T01:01:44;10.60;;;6.40;;
16854;SDS011;8543;54.522;18.550;2024-03-25T01:04:09;8.70;;;5.90;;
16854;SDS011;8543;54.522;18.550;2024-03-25T01:06:34;9.00;;;6.00;;
16854;SDS011;8543;54.522;18.550;2024-03-25T01:09:00;9.10;;;5.90;;
16854;SDS011;8543;54.522;18.550;2024-03-25T01:11:25;8.10;;;6.00;;
16854;SDS011;8543;54.522;18.550;2024-03-25T01:13:51;9.10;;;6.30;;
16854;SDS011;8543;54.522;18.550;2024-03-25T01:16:16;8.80;;;6.20;;
16854;SDS011;8543;54.522;18.550;2024-03-25T01:18:41;11.80;;;7.40;;
16854;SDS011;8543;54.522;18.550;2024-03-25T01:21:07;10.50;;;6.40;;
16854;SDS011;8543;54.522;18.550;2024-03-25T01:23:32;7.80;;;6.10;;
16854;SDS011;8543;54.522;18.550;2024-03-25T01:25:58;8.80;;;5.60;;
16854;SDS011;8543;54.522;18.550;2024-03-25T01:28:23;10.90;;;6.40;;
16854;SDS011;8543;54.522;18.550;2024-03-25T01:30:48;9.60;;;5.90;;
16854;SDS011;8543;54.522;18.550;2024-03-25T01:33:14;9.30;;;6.40;;
16854;SDS011;8543;54.522;18.550;2024-03-25T01:35:40;9.40;;;6.20;;
16854;SDS011;8543;54.522;18.550;2024-03-25T01:38:06;8.70;;;5.90;;
16854;SDS011;8543;54.522;18.550;2024-03-25T01:40:32;7.90;;;5.50;;
16854;SDS011;8543;54.522;18.550;2024-03-25T01:42:59;8.60;;;6.00;;
16854;SDS011;8543;54.522;18.550;2024-03-25T01:45:26;8.60;;;5.70;;
16854;SDS011;8543;54.522;18.550;2024-03-25T01:47:53;8.30;;;5.70;;
16854;SDS011;8543;54.522;18.550;2024-03-25T01:50:19;11.90;;;6.60;;
16854;SDS011;8543;54.522;18.550;2024-03-25T01:52:45;9.30;;;6.30;;
16854;SDS011;8543;54.522;18.550;2024-03-25T01:55:12;10.20;;;6.50;;
16854;SDS011;8543;54.522;18.550;2024-03-25T01:57:45;9.40;;;6.40;;
16854;SDS011;8543;54.522;18.550;2024-03-25T02:00:11;9.40;;;6.40;;
16854;SDS011;8543;54.522;18.550;2024-03-25T02:02:38;9.40;;;6.10;;
16854;SDS011;8543;54.522;18.550;2024-03-25T02:05:15;8.80;;;6.30;;
16854;SDS011;8543;54.522;18.550;2024-03-25T02:07:41;11.60;;;6.20;;
16854;SDS011;8543;54.522;18.550;2024-03-25T02:10:08;7.50;;;5.90;;
16854;SDS011;8543;54.522;18.550;2024-03-25T02:12:40;9.20;;;5.40;;
16854;SDS011;8543;54.522;18.550;2024-03-25T02:15:09;9.00;;;6.10;;
16854;SDS011;8543;54.522;18.550;2024-03-25T02:17:35;9.50;;;5.60;;
16854;SDS011;8543;54.522;18.550;2024-03-25T02:20:01;8.00;;;5.40;;
16854;SDS011;8543;54.522;18.550;2024-03-25T02:22:30;8.50;;;5.90;;
16854;SDS011;8543;54.522;18.550;2024-03-25T02:24:56;9.60;;;6.20;;
16854;SDS011;8543;54.522;18.550;2024-03-25T02:27:23;9.80;;;5.60;;
16854;SDS011;8543;54.522;18.550;2024-03-25T02:29:50;9.40;;;6.10;;
16854;SDS011;8543;54.522;18.550;2024-03-25T02:32:15;7.90;;;5.80;;
16854;SDS011;8543;54.522;18.550;2024-03-25T02:34:41;7.80;;;5.60;;
16854;SDS011;8543;54.522;18.550;2024-03-25T02:37:10;9.10;;;6.00;;
16854;SDS011;8543;54.522;18.550;2024-03-25T02:39:36;9.70;;;6.00;;
16854;SDS011;8543;54.522;18.550;2024-03-25T02:42:02;8.90;;;6.00;;
16854;SDS011;8543;54.522;18.550;2024-03-25T02:44:27;11.20;;;6.80;;
16854;SDS011;8543;54.522;18.550;2024-03-25T02:46:53;10.00;;;6.80;;
16854;SDS011;8543;54.522;18.550;2024-03-25T02:49:19;10.60;;;6.90;;
16854;SDS011;8543;54.522;18.550;2024-03-25T02:51:45;9.90;;;6.80;;
16854;SDS011;8543;54.522;18.550;2024-03-25T02:54:10;9.30;;;6.50;;
16854;SDS011;8543;54.522;18.550;2024-03-25T02:56:36;9.10;;;6.10;;
16854;SDS011;8543;54.522;18.550;2024-03-25T02:59:01;8.90;;;5.90;;
16854;SDS011;8543;54.522;18.550;2024-03-25T03:01:27;7.70;;;5.70;;
16854;SDS011;8543;54.522;18.550;2024-03-25T03:03:52;7.40;;;5.60;;
16854;SDS011;8543;54.522;18.550;2024-03-25T03:06:18;9.50;;;5.80;;
16854;SDS011;8543;54.522;18.550;2024-03-25T03:08:44;8.40;;;6.10;;
16854;SDS011;8543;54.522;18.550;2024-03-25T03:11:09;7.70;;;5.90;;
16854;SDS011;8543;54.522;18.550;2024-03-25T03:13:35;8.90;;;6.30;;
16854;SDS011;8543;54.522;18.550;2024-03-25T03:16:00;9.20;;;6.10;;
16854;SDS011;8543;54.522;18.550;2024-03-25T03:18:25;9.10;;;6.30;;
16854;SDS011;8543;54.522;18.550;2024-03-25T03:20:51;10.00;;;6.50;;
16854;SDS011;8543;54.522;18.550;2024-03-25T03:23:16;8.20;;;6.10;;
16854;SDS011;8543;54.522;18.550;2024-03-25T03:25:42;8.40;;;6.30;;
16854;SDS011;8543;54.522;18.550;2024-03-25T03:28:07;9.20;;;5.90;;
16854;SDS011;8543;54.522;18.550;2024-03-25T03:30:33;9.90;;;6.50;;
16854;SDS011;8543;54.522;18.550;2024-03-25T03:32:58;13.20;;;7.60;;
16854;SDS011;8543;54.522;18.550;2024-03-25T03:35:24;11.30;;;7.60;;
16854;SDS011;8543;54.522;18.550;2024-03-25T03:37:49;10.00;;;6.90;;
16854;SDS011;8543;54.522;18.550;2024-03-25T03:40:14;8.70;;;6.60;;
16854;SDS011;8543;54.522;18.550;2024-03-25T03:42:40;10.80;;;6.90;;
16854;SDS011;8543;54.522;18.550;2024-03-25T03:45:06;8.60;;;6.40;;
16854;SDS011;8543;54.522;18.550;2024-03-25T03:47:32;10.20;;;6.70;;
16854;SDS011;8543;54.522;18.550;2024-03-25T03:49:57;9.10;;;6.40;;
16854;SDS011;8543;54.522;18.550;2024-03-25T03:52:23;8.40;;;6.40;;
16854;SDS011;8543;54.522;18.550;2024-03-25T03:54:48;11.80;;;6.50;;
16854;SDS011;8543;54.522;18.550;2024-03-25T03:57:13;9.80;;;6.80;;
16854;SDS011;8543;54.522;18.550;2024-03-25T03:59:39;8.80;;;6.80;;
16854;SDS011;8543;54.522;18.550;2024-03-25T04:02:04;9.10;;;6.80;;
16854;SDS011;8543;54.522;18.550;2024-03-25T04:04:30;9.20;;;6.60;;
16854;SDS011;8543;54.522;18.550;2024-03-25T04:06:55;9.40;;;6.90;;
16854;SDS011;8543;54.522;18.550;2024-03-25T04:09:20;10.20;;;7.30;;
16854;SDS011;8543;54.522;18.550;2024-03-25T04:11:48;10.20;;;6.90;;
16854;SDS011;8543;54.522;18.550;2024-03-25T04:14:14;9.00;;;6.60;;
16854;SDS011;8543;54.522;18.550;2024-03-25T04:16:40;9.30;;;7.00;;
16854;SDS011;8543;54.522;18.550;2024-03-25T04:19:05;11.60;;;8.20;;
16854;SDS011;8543;54.522;18.550;2024-03-25T04:21:30;13.20;;;8.10;;
16854;SDS011;8543;54.522;18.550;2024-03-25T04:23:56;11.40;;;7.70;;
16854;SDS011;8543;54.522;18.550;2024-03-25T04:26:21;11.10;;;7.40;;
16854;SDS011;8543;54.522;18.550;2024-03-25T04:28:46;10.20;;;7.60;;
16854;SDS011;8543;54.522;18.550;2024-03-25T04:31:12;9.70;;;6.70;;
16854;SDS011;8543;54.522;18.550;2024-03-25T04:33:38;9.20;;;7.20;;
16854;SDS011;8543;54.522;18.550;2024-03-25T04:36:03;8.80;;;6.50;;
16854;SDS011;8543;54.522;18.550;2024-03-25T04:38:29;9.30;;;6.70;;
16854;SDS011;8543;54.522;18.550;2024-03-25T04:40:54;9.70;;;6.40;;
16854;SDS011;8543;54.522;18.550;2024-03-25T04:43:19;9.40;;;6.70;;
16854;SDS011;8543;54.522;18.550;2024-03-25T04:45:45;11.40;;;6.70;;
16854;SDS011;8543;54.522;18.550;2024-03-25T04:48:11;10.10;;;6.90;;
16854;SDS011;8543;54.522;18.550;2024-03-25T04:50:36;10.40;;;6.70;;
16854;SDS011;8543;54.522;18.550;2024-03-25T04:53:02;9.90;;;7.00;;
16854;SDS011;8543;54.522;18.550;2024-03-25T04:55:27;9.60;;;6.90;;
16854;SDS011;8543;54.522;18.550;2024-03-25T04:57:52;10.70;;;7.40;;
16854;SDS011;8543;54.522;18.550;2024-03-25T05:00:18;8.90;;;6.50;;
16854;SDS011;8543;54.522;18.550;2024-03-25T05:02:43;11.60;;;7.40;;
16854;SDS011;8543;54.522;18.550;2024-03-25T05:05:09;12.00;;;8.00;;
16854;SDS011;8543;54.522;18.550;2024-03-25T05:07:34;9.80;;;7.20;;
16854;SDS011;8543;54.522;18.550;2024-03-25T05:10:00;10.30;;;7.40;;
16854;SDS011;8543;54.522;18.550;2024-03-25T05:12:26;13.30;;;8.40;;
16854;SDS011;8543;54.522;18.550;2024-03-25T05:14:55;11.10;;;7.90;;
16854;SDS011;8543;54.522;18.550;2024-03-25T05:17:21;12.40;;;7.70;;
16854;SDS011;8543;54.522;18.550;2024-03-25T05:19:46;11.20;;;8.00;;
16854;SDS011;8543;54.522;18.550;2024-03-25T05:22:12;12.80;;;8.90;;
16854;SDS011;8543;54.522;18.550;2024-03-25T05:24:37;10.10;;;7.40;;
16854;SDS011;8543;54.522;18.550;2024-03-25T05:27:03;12.20;;;7.90;;
16854;SDS011;8543;54.522;18.550;2024-03-25T05:29:28;12.30;;;7.80;;
16854;SDS011;8543;54.522;18.550;2024-03-25T05:31:58;12.80;;;8.00;;
16854;SDS011;8543;54.522;18.550;2024-03-25T05:34:24;12.00;;;8.10;;
16854;SDS011;8543;54.522;18.550;2024-03-25T05:36:50;12.20;;;8.50;;
16854;SDS011;8543;54.522;18.550;2024-03-25T05:39:15;12.90;;;8.50;;
16854;SDS011;8543;54.522;18.550;2024-03-25T05:41:41;10.90;;;8.60;;
16854;SDS011;8543;54.522;18.550;2024-03-25T05:44:06;13.10;;;8.60;;
16854;SDS011;8543;54.522;18.550;2024-03-25T05:46:31;10.80;;;8.20;;
16854;SDS011;8543;54.522;18.550;2024-03-25T05:48:57;11.70;;;7.90;;
16854;SDS011;8543;54.522;18.550;2024-03-25T05:51:22;11.70;;;8.10;;
16854;SDS011;8543;54.522;18.550;2024-03-25T05:53:47;12.20;;;8.60;;
16854;SDS011;8543;54.522;18.550;2024-03-25T05:56:13;11.60;;;7.70;;
16854;SDS011;8543;54.522;18.550;2024-03-25T05:58:38;12.10;;;7.80;;
16854;SDS011;8543;54.522;18.550;2024-03-25T06:01:04;11.60;;;7.70;;
16854;SDS011;8543;54.522;18.550;2024-03-25T06:03:29;15.10;;;9.00;;
16854;SDS011;8543;54.522;18.550;2024-03-25T06:05:55;13.10;;;8.90;;
16854;SDS011;8543;54.522;18.550;2024-03-25T06:08:21;13.30;;;8.50;;
16854;SDS011;8543;54.522;18.550;2024-03-25T06:10:49;13.00;;;8.20;;
16854;SDS011;8543;54.522;18.550;2024-03-25T06:13:16;11.70;;;7.70;;
16854;SDS011;8543;54.522;18.550;2024-03-25T06:15:41;12.90;;;8.80;;
16854;SDS011;8543;54.522;18.550;2024-03-25T06:18:07;14.70;;;9.00;;
16854;SDS011;8543;54.522;18.550;2024-03-25T06:20:32;11.00;;;7.90;;
16854;SDS011;8543;54.522;18.550;2024-03-25T06:22:57;11.50;;;8.40;;
16854;SDS011;8543;54.522;18.550;2024-03-25T06:25:23;12.50;;;8.60;;
16854;SDS011;8543;54.522;18.550;2024-03-25T06:27:48;13.00;;;8.60;;
16854;SDS011;8543;54.522;18.550;2024-03-25T06:30:13;13.40;;;9.00;;
16854;SDS011;8543;54.522;18.550;2024-03-25T06:32:58;13.10;;;8.30;;
16854;SDS011;8543;54.522;18.550;2024-03-25T06:35:42;13.80;;;9.10;;
16854;SDS011;8543;54.522;18.550;2024-03-25T06:38:08;13.70;;;9.20;;
16854;SDS011;8543;54.522;18.550;2024-03-25T06:40:34;14.00;;;9.30;;
16854;SDS011;8543;54.522;18.550;2024-03-25T06:42:59;15.00;;;9.50;;
16854;SDS011;8543;54.522;18.550;2024-03-25T06:45:24;13.40;;;8.60;;
16854;SDS011;8543;54.522;18.550;2024-03-25T06:47:50;13.80;;;9.00;;
16854;SDS011;8543;54.522;18.550;2024-03-25T06:50:15;14.00;;;10.10;;
16854;SDS011;8543;54.522;18.550;2024-03-25T06:52:41;15.30;;;9.30;;
16854;SDS011;8543;54.522;18.550;2024-03-25T06:55:06;15.20;;;10.00;;
16854;SDS011;8543;54.522;18.550;2024-03-25T06:57:33;15.60;;;9.00;;
16854;SDS011;8543;54.522;18.550;2024-03-25T06:59:58;14.00;;;8.60;;
16854;SDS011;8543;54.522;18.550;2024-03-25T07:02:24;14.70;;;9.10;;
16854;SDS011;8543;54.522;18.550;2024-03-25T07:04:49;15.50;;;9.50;;
16854;SDS011;8543;54.522;18.550;2024-03-25T07:07:14;16.40;;;8.80;;
16854;SDS011;8543;54.522;18.550;2024-03-25T07:09:40;14.30;;;9.00;;
16854;SDS011;8543;54.522;18.550;2024-03-25T07:12:06;10.70;;;8.50;;
16854;SDS011;8543;54.522;18.550;2024-03-25T07:14:32;14.10;;;9.20;;
16854;SDS011;8543;54.522;18.550;2024-03-25T07:16:57;11.60;;;8.40;;
16854;SDS011;8543;54.522;18.550;2024-03-25T07:19:23;12.60;;;8.20;;
16854;SDS011;8543;54.522;18.550;2024-03-25T07:21:48;12.90;;;9.00;;
16854;SDS011;8543;54.522;18.550;2024-03-25T07:24:13;12.30;;;9.70;;
16854;SDS011;8543;54.522;18.550;2024-03-25T07:26:39;13.10;;;9.00;;
16854;SDS011;8543;54.522;18.550;2024-03-25T07:29:04;13.50;;;8.70;;
16854;SDS011;8543;54.522;18.550;2024-03-25T07:31:29;13.40;;;9.20;;
16854;SDS011;8543;54.522;18.550;2024-03-25T07:33:55;12.60;;;9.00;;
16854;SDS011;8543;54.522;18.550;2024-03-25T07:36:20;12.20;;;8.50;;
16854;SDS011;8543;54.522;18.550;2024-03-25T07:38:46;13.10;;;8.20;;
16854;SDS011;8543;54.522;18.550;2024-03-25T07:41:11;11.70;;;8.40;;
16854;SDS011;8543;54.522;18.550;2024-03-25T07:43:37;11.30;;;8.50;;
16854;SDS011;8543;54.522;18.550;2024-03-25T07:46:02;12.20;;;8.80;;
16854;SDS011;8543;54.522;18.550;2024-03-25T07:48:28;11.70;;;8.40;;
16854;SDS011;8543;54.522;18.550;2024-03-25T07:50:53;13.30;;;9.80;;
16854;SDS011;8543;54.522;18.550;2024-03-25T07:53:18;16.70;;;10.90;;
16854;SDS011;8543;54.522;18.550;2024-03-25T07:55:44;14.90;;;10.90;;
16854;SDS011;8543;54.522;18.550;2024-03-25T07:58:09;16.00;;;10.80;;
16854;SDS011;8543;54.522;18.550;2024-03-25T08:00:35;19.10;;;11.70;;
16854;SDS011;8543;54.522;18.550;2024-03-25T08:03:00;18.30;;;12.70;;
16854;SDS011;8543;54.522;18.550;2024-03-25T08:05:26;19.80;;;11.80;;
16854;SDS011;8543;54.522;18.550;2024-03-25T08:07:51;18.00;;;12.00;;
16854;SDS011;8543;54.522;18.550;2024-03-25T08:10:17;19.20;;;13.10;;
16854;SDS011;8543;54.522;18.550;2024-03-25T08:12:42;20.00;;;11.90;;
16854;SDS011;8543;54.522;18.550;2024-03-25T08:15:08;16.00;;;11.70;;
16854;SDS011;8543;54.522;18.550;2024-03-25T08:17:33;18.70;;;11.60;;
16854;SDS011;8543;54.522;18.550;2024-03-25T08:19:59;19.00;;;11.90;;
16854;SDS011;8543;54.522;18.550;2024-03-25T08:22:24;16.70;;;11.30;;
16854;SDS011;8543;54.522;18.550;2024-03-25T08:24:49;16.00;;;11.80;;
16854;SDS011;8543;54.522;18.550;2024-03-25T08:27:15;18.00;;;12.30;;
16854;SDS011;8543;54.522;18.550;2024-03-25T08:29:40;18.60;;;12.00;;
16854;SDS011;8543;54.522;18.550;2024-03-25T08:32:06;15.40;;;11.30;;
16854;SDS011;8543;54.522;18.550;2024-03-25T08:34:31;15.70;;;11.10;;
16854;SDS011;8543;54.522;18.550;2024-03-25T08:36:57;13.60;;;10.30;;
16854;SDS011;8543;54.522;18.550;2024-03-25T08:39:22;21.10;;;14.50;;
16854;SDS011;8543;54.522;18.550;2024-03-25T08:41:48;21.00;;;15.00;;
16854;SDS011;8543;54.522;18.550;2024-03-25T08:44:14;19.40;;;13.50;;
16854;SDS011;8543;54.522;18.550;2024-03-25T08:46:39;21.20;;;13.90;;
16854;SDS011;8543;54.522;18.550;2024-03-25T08:49:04;21.10;;;14.90;;
16854;SDS011;8543;54.522;18.550;2024-03-25T08:51:30;20.10;;;14.10;;
16854;SDS011;8543;54.522;18.550;2024-03-25T08:53:55;22.90;;;14.60;;
16854;SDS011;8543;54.522;18.550;2024-03-25T08:56:20;24.40;;;14.50;;
16854;SDS011;8543;54.522;18.550;2024-03-25T08:58:46;19.20;;;13.90;;
16854;SDS011;8543;54.522;18.550;2024-03-25T09:01:11;20.20;;;14.80;;
16854;SDS011;8543;54.522;18.550;2024-03-25T09:03:39;23.20;;;14.00;;
16854;SDS011;8543;54.522;18.550;2024-03-25T09:06:05;17.50;;;14.10;;
16854;SDS011;8543;54.522;18.550;2024-03-25T09:08:32;24.00;;;15.20;;
16854;SDS011;8543;54.522;18.550;2024-03-25T09:11:17;21.10;;;15.30;;
16854;SDS011;8543;54.522;18.550;2024-03-25T09:13:43;18.40;;;14.50;;
16854;SDS011;8543;54.522;18.550;2024-03-25T09:16:08;19.40;;;13.70;;
16854;SDS011;8543;54.522;18.550;2024-03-25T09:18:34;19.70;;;14.40;;
16854;SDS011;8543;54.522;18.550;2024-03-25T09:20:59;20.30;;;14.30;;
16854;SDS011;8543;54.522;18.550;2024-03-25T09:23:24;19.20;;;15.50;;
16854;SDS011;8543;54.522;18.550;2024-03-25T09:25:53;18.20;;;13.50;;
16854;SDS011;8543;54.522;18.550;2024-03-25T09:28:18;16.40;;;12.30;;
16854;SDS011;8543;54.522;18.550;2024-03-25T09:30:44;16.90;;;12.40;;
16854;SDS011;8543;54.522;18.550;2024-03-25T09:33:10;13.90;;;11.30;;
16854;SDS011;8543;54.522;18.550;2024-03-25T09:35:35;15.50;;;11.10;;
16854;SDS011;8543;54.522;18.550;2024-03-25T09:38:02;18.00;;;12.20;;
16854;SDS011;8543;54.522;18.550;2024-03-25T09:40:27;13.20;;;10.40;;
16854;SDS011;8543;54.522;18.550;2024-03-25T09:42:57;13.30;;;10.10;;
16854;SDS011;8543;54.522;18.550;2024-03-25T09:45:26;15.10;;;11.10;;
16854;SDS011;8543;54.522;18.550;2024-03-25T09:47:53;15.40;;;11.90;;
16854;SDS011;8543;54.522;18.550;2024-03-25T09:50:20;21.80;;;14.10;;
16854;SDS011;8543;54.522;18.550;2024-03-25T09:52:49;22.70;;;15.60;;
16854;SDS011;8543;54.522;18.550;2024-03-25T09:55:14;22.40;;;15.60;;
16854;SDS011;8543;54.522;18.550;2024-03-25T09:57:40;20.70;;;14.40;;
16854;SDS011;8543;54.522;18.550;2024-03-25T10:00:07;22.60;;;15.00;;
16854;SDS011;8543;54.522;18.550;2024-03-25T10:02:37;18.70;;;13.70;;
16854;SDS011;8543;54.522;18.550;2024-03-25T10:05:04;21.00;;;14.80;;
16854;SDS011;8543;54.522;18.550;2024-03-25T10:07:30;19.80;;;14.30;;
16854;SDS011;8543;54.522;18.550;2024-03-25T10:09:55;22.20;;;14.60;;
16854;SDS011;8543;54.522;18.550;2024-03-25T10:12:21;20.10;;;14.50;;
16854;SDS011;8543;54.522;18.550;2024-03-25T10:14:46;18.00;;;12.20;;
16854;SDS011;8543;54.522;18.550;2024-03-25T10:17:12;13.00;;;10.80;;
16854;SDS011;8543;54.522;18.550;2024-03-25T10:19:38;14.40;;;10.90;;
16854;SDS011;8543;54.522;18.550;2024-03-25T10:22:04;16.20;;;11.20;;
16854;SDS011;8543;54.522;18.550;2024-03-25T10:24:51;14.70;;;10.60;;
16854;SDS011;8543;54.522;18.550;2024-03-25T10:27:22;14.50;;;10.70;;
16854;SDS011;8543;54.522;18.550;2024-03-25T10:29:51;22.30;;;14.80;;
16854;SDS011;8543;54.522;18.550;2024-03-25T10:32:23;15.50;;;12.00;;
16854;SDS011;8543;54.522;18.550;2024-03-25T10:34:49;17.40;;;12.50;;
16854;SDS011;8543;54.522;18.550;2024-03-25T10:37:15;16.50;;;11.30;;
16854;SDS011;8543;54.522;18.550;2024-03-25T10:39:47;17.40;;;11.70;;
16854;SDS011;8543;54.522;18.550;2024-03-25T10:42:13;20.00;;;14.40;;
16854;SDS011;8543;54.522;18.550;2024-03-25T10:44:41;20.00;;;14.40;;
16854;SDS011;8543;54.522;18.550;2024-03-25T10:47:07;19.60;;;14.20;;
16854;SDS011;8543;54.522;18.550;2024-03-25T10:49:56;19.60;;;13.60;;
16854;SDS011;8543;54.522;18.550;2024-03-25T10:52:23;20.30;;;14.40;;
16854;SDS011;8543;54.522;18.550;2024-03-25T10:54:48;22.70;;;13.50;;
16854;SDS011;8543;54.522;18.550;2024-03-25T10:57:15;21.70;;;14.70;;
16854;SDS011;8543;54.522;18.550;2024-03-25T10:59:44;19.10;;;13.50;;
16854;SDS011;8543;54.522;18.550;2024-03-25T11:02:10;15.60;;;11.90;;
16854;SDS011;8543;54.522;18.550;2024-03-25T11:04:36;16.60;;;11.70;;
16854;SDS011;8543;54.522;18.550;2024-03-25T11:07:11;15.10;;;10.80;;
16854;SDS011;8543;54.522;18.550;2024-03-25T11:09:37;15.30;;;10.20;;
16854;SDS011;8543;54.522;18.550;2024-03-25T11:12:04;16.40;;;11.40;;
16854;SDS011;8543;54.522;18.550;2024-03-25T11:14:30;17.40;;;11.90;;
16854;SDS011;8543;54.522;18.550;2024-03-25T11:16:59;16.80;;;11.10;;
16854;SDS011;8543;54.522;18.550;2024-03-25T11:19:28;14.70;;;10.10;;
16854;SDS011;8543;54.522;18.550;2024-03-25T11:22:05;14.00;;;10.30;;
16854;SDS011;8543;54.522;18.550;2024-03-25T11:24:35;15.50;;;10.40;;
16854;SDS011;8543;54.522;18.550;2024-03-25T11:27:06;15.60;;;11.00;;
16854;SDS011;8543;54.522;18.550;2024-03-25T11:29:33;17.70;;;11.10;;
16854;SDS011;8543;54.522;18.550;2024-03-25T11:31:59;14.30;;;11.80;;
16854;SDS011;8543;54.522;18.550;2024-03-25T11:34:28;14.10;;;11.30;;
16854;SDS011;8543;54.522;18.550;2024-03-25T11:36:53;14.30;;;9.80;;
16854;SDS011;8543;54.522;18.550;2024-03-25T11:39:21;14.30;;;10.40;;
16854;SDS011;8543;54.522;18.550;2024-03-25T11:41:47;12.00;;;9.70;;
16854;SDS011;8543;54.522;18.550;2024-03-25T11:44:12;12.60;;;10.00;;
16854;SDS011;8543;54.522;18.550;2024-03-25T11:46:38;15.00;;;10.50;;
16854;SDS011;8543;54.522;18.550;2024-03-25T11:49:07;13.60;;;10.50;;
16854;SDS011;8543;54.522;18.550;2024-03-25T11:51:36;14.20;;;11.10;;
16854;SDS011;8543;54.522;18.550;2024-03-25T11:54:05;15.70;;;10.90;;
16854;SDS011;8543;54.522;18.550;2024-03-25T11:56:31;15.20;;;11.10;;
16854;SDS011;8543;54.522;18.550;2024-03-25T11:58:57;14.60;;;10.20;;
16854;SDS011;8543;54.522;18.550;2024-03-25T12:01:24;13.40;;;10.20;;
16854;SDS011;8543;54.522;18.550;2024-03-25T12:03:49;12.30;;;9.30;;
16854;SDS011;8543;54.522;18.550;2024-03-25T12:06:15;14.20;;;9.90;;
16854;SDS011;8543;54.522;18.550;2024-03-25T12:08:40;13.30;;;10.60;;
16854;SDS011;8543;54.522;18.550;2024-03-25T12:11:25;17.30;;;12.40;;
16854;SDS011;8543;54.522;18.550;2024-03-25T12:13:51;15.10;;;10.60;;
16854;SDS011;8543;54.522;18.550;2024-03-25T12:16:16;13.10;;;10.00;;
16854;SDS011;8543;54.522;18.550;2024-03-25T12:18:42;13.40;;;9.80;;
16854;SDS011;8543;54.522;18.550;2024-03-25T12:21:07;17.00;;;12.20;;
16854;SDS011;8543;54.522;18.550;2024-03-25T12:23:33;16.00;;;11.80;;
16854;SDS011;8543;54.522;18.550;2024-03-25T12:25:59;17.70;;;12.40;;
16854;SDS011;8543;54.522;18.550;2024-03-25T12:28:26;16.60;;;13.00;;
16854;SDS011;8543;54.522;18.550;2024-03-25T12:30:52;17.30;;;11.70;;
16854;SDS011;8543;54.522;18.550;2024-03-25T12:33:18;17.90;;;11.80;;
16854;SDS011;8543;54.522;18.550;2024-03-25T12:35:47;16.90;;;11.50;;
16854;SDS011;8543;54.522;18.550;2024-03-25T12:38:23;16.60;;;11.90;;
16854;SDS011;8543;54.522;18.550;2024-03-25T12:40:52;19.90;;;13.00;;
16854;SDS011;8543;54.522;18.550;2024-03-25T12:43:18;18.20;;;12.00;;
16854;SDS011;8543;54.522;18.550;2024-03-25T12:45:44;12.80;;;10.00;;
16854;SDS011;8543;54.522;18.550;2024-03-25T12:48:09;14.00;;;10.10;;
16854;SDS011;8543;54.522;18.550;2024-03-25T12:50:35;16.90;;;11.50;;
16854;SDS011;8543;54.522;18.550;2024-03-25T12:53:01;13.30;;;8.80;;
16854;SDS011;8543;54.522;18.550;2024-03-25T12:55:28;13.50;;;9.70;;
16854;SDS011;8543;54.522;18.550;2024-03-25T12:57:54;11.50;;;8.00;;
16854;SDS011;8543;54.522;18.550;2024-03-25T13:00:20;11.30;;;8.00;;
16854;SDS011;8543;54.522;18.550;2024-03-25T13:02:45;9.60;;;6.80;;
16854;SDS011;8543;54.522;18.550;2024-03-25T13:05:10;11.00;;;7.80;;
16854;SDS011;8543;54.522;18.550;2024-03-25T13:07:36;11.40;;;8.20;;
16854;SDS011;8543;54.522;18.550;2024-03-25T13:10:01;12.70;;;8.30;;
16854;SDS011;8543;54.522;18.550;2024-03-25T13:12:29;13.70;;;9.20;;
16854;SDS011;8543;54.522;18.550;2024-03-25T13:14:55;15.40;;;9.50;;
16854;SDS011;8543;54.522;18.550;2024-03-25T13:17:21;17.10;;;11.20;;
16854;SDS011;8543;54.522;18.550;2024-03-25T13:19:46;19.30;;;12.40;;
16854;SDS011;8543;54.522;18.550;2024-03-25T13:22:12;15.50;;;10.10;;
16854;SDS011;8543;54.522;18.550;2024-03-25T13:24:37;15.80;;;10.20;;
16854;SDS011;8543;54.522;18.550;2024-03-25T13:27:02;14.10;;;9.90;;
16854;SDS011;8543;54.522;18.550;2024-03-25T13:29:28;13.40;;;8.90;;
16854;SDS011;8543;54.522;18.550;2024-03-25T13:31:53;10.40;;;7.50;;
16854;SDS011;8543;54.522;18.550;2024-03-25T13:34:19;9.90;;;7.20;;
16854;SDS011;8543;54.522;18.550;2024-03-25T13:36:44;10.10;;;7.80;;
16854;SDS011;8543;54.522;18.550;2024-03-25T13:39:10;13.60;;;8.60;;
16854;SDS011;8543;54.522;18.550;2024-03-25T13:41:35;11.70;;;8.70;;
16854;SDS011;8543;54.522;18.550;2024-03-25T13:44:00;11.10;;;7.80;;
16854;SDS011;8543;54.522;18.550;2024-03-25T13:46:26;11.00;;;7.10;;
16854;SDS011;8543;54.522;18.550;2024-03-25T13:48:51;11.40;;;6.70;;
16854;SDS011;8543;54.522;18.550;2024-03-25T13:51:17;8.60;;;5.60;;
16854;SDS011;8543;54.522;18.550;2024-03-25T13:53:42;7.70;;;5.90;;
16854;SDS011;8543;54.522;18.550;2024-03-25T13:56:09;7.20;;;5.10;;
16854;SDS011;8543;54.522;18.550;2024-03-25T13:58:34;8.40;;;5.00;;
16854;SDS011;8543;54.522;18.550;2024-03-25T14:01:00;6.90;;;4.60;;
16854;SDS011;8543;54.522;18.550;2024-03-25T14:03:26;6.60;;;3.70;;
16854;SDS011;8543;54.522;18.550;2024-03-25T14:05:51;8.10;;;4.40;;
16854;SDS011;8543;54.522;18.550;2024-03-25T14:08:16;5.50;;;3.80;;
16854;SDS011;8543;54.522;18.550;2024-03-25T14:10:45;5.10;;;3.40;;
16854;SDS011;8543;54.522;18.550;2024-03-25T14:13:10;4.80;;;3.30;;
16854;SDS011;8543;54.522;18.550;2024-03-25T14:15:35;5.30;;;3.50;;
16854;SDS011;8543;54.522;18.550;2024-03-25T14:18:01;6.30;;;3.90;;
16854;SDS011;8543;54.522;18.550;2024-03-25T14:20:27;6.30;;;3.70;;
16854;SDS011;8543;54.522;18.550;2024-03-25T14:22:52;6.30;;;4.30;;
16854;SDS011;8543;54.522;18.550;2024-03-25T14:25:17;5.70;;;4.10;;
16854;SDS011;8543;54.522;18.550;2024-03-25T14:27:44;6.40;;;4.30;;